createdAt,value
2022-08-29T00:02:27.801Z,4.65
2022-08-29T00:04:57.619Z,4.32
2022-08-29T00:07:27.707Z,3.92
2022-08-29T00:10:00.015Z,6.18
2022-08-29T00:12:29.796Z,3.67
2022-08-29T00:14:59.533Z,4.25
2022-08-29T00:17:29.252Z,4.00
2022-08-29T00:19:58.960Z,3.80
2022-08-29T00:22:28.877Z,4.05
2022-08-29T00:25:05.810Z,6.80
2022-08-29T00:27:36.244Z,3.88
2022-08-29T00:30:07.607Z,4.75
2022-08-29T00:32:37.620Z,3.35
2022-08-29T00:35:10.067Z,5.68
2022-08-29T00:37:40.128Z,3.85
2022-08-29T00:40:16.800Z,3.20
2022-08-29T00:42:47.243Z,4.40
2022-08-29T00:45:18.354Z,4.93
2022-08-29T00:47:52.438Z,4.65
2022-08-29T00:50:28.629Z,4.85
2022-08-29T00:53:00.000Z,5.10
2022-08-29T00:55:35.622Z,4.10
2022-08-29T00:58:11.739Z,3.92
2022-08-29T01:00:44.663Z,5.75
2022-08-29T01:03:15.153Z,4.80
2022-08-29T01:05:46.337Z,3.63
2022-08-29T01:08:16.298Z,4.53
2022-08-29T01:11:01.207Z,4.85
2022-08-29T01:13:35.433Z,5.93
2022-08-29T01:16:06.918Z,4.15
2022-08-29T01:18:39.654Z,4.03
2022-08-29T01:21:20.758Z,6.32
2022-08-29T01:23:59.802Z,3.28
2022-08-29T01:26:34.225Z,3.88
2022-08-29T01:29:04.050Z,4.22
2022-08-29T01:31:55.979Z,4.60
2022-08-29T01:34:28.801Z,4.15
2022-08-29T01:37:00.997Z,6.63
2022-08-29T01:39:32.764Z,5.47
2022-08-29T01:42:07.143Z,3.05
2022-08-29T01:44:37.321Z,5.50
2022-08-29T01:47:08.592Z,4.43
2022-08-29T01:49:40.789Z,6.82
2022-08-29T01:52:12.786Z,5.10
2022-08-29T01:54:43.212Z,6.43
2022-08-29T01:57:16.711Z,4.35
2022-08-29T01:59:46.860Z,2.83
2022-08-29T02:02:21.002Z,6.13
2022-08-29T02:04:51.243Z,6.25
2022-08-29T02:07:25.524Z,6.13
2022-08-29T02:09:56.291Z,5.97
2022-08-29T02:12:29.873Z,4.43
2022-08-29T02:14:59.595Z,4.38
2022-08-29T02:17:29.808Z,4.03
2022-08-29T02:19:59.535Z,4.40
2022-08-29T02:22:29.245Z,6.18
2022-08-29T02:25:02.129Z,4.45
2022-08-29T02:27:34.468Z,4.15
2022-08-29T02:30:04.196Z,6.10
2022-08-29T02:32:33.944Z,4.00
2022-08-29T02:35:04.362Z,3.75
2022-08-29T02:37:34.779Z,4.30
2022-08-29T02:40:04.908Z,2.60
2022-08-29T02:42:37.548Z,4.85
2022-08-29T02:45:08.067Z,6.00
2022-08-29T02:47:38.175Z,5.72
2022-08-29T02:50:11.543Z,6.63
2022-08-29T02:52:42.041Z,3.58
2022-08-29T02:55:15.402Z,4.85
2022-08-29T02:57:49.091Z,3.78
2022-08-29T03:00:23.305Z,4.90
2022-08-29T03:02:53.227Z,7.80
2022-08-29T03:05:27.589Z,4.15
2022-08-29T03:07:57.603Z,6.45
2022-08-29T03:10:28.408Z,4.78
2022-08-29T03:13:01.487Z,5.05
2022-08-29T03:15:31.266Z,5.28
2022-08-29T03:18:01.653Z,4.05
2022-08-29T03:20:32.066Z,3.50
2022-08-29T03:23:01.803Z,6.57
2022-08-29T03:25:31.602Z,5.57
2022-08-29T03:28:03.911Z,6.05
2022-08-29T03:30:34.028Z,5.30
2022-08-29T03:33:04.179Z,5.00
2022-08-29T03:35:34.627Z,4.35
2022-08-29T03:38:04.525Z,4.60
2022-08-29T03:40:34.979Z,5.43
2022-08-29T03:43:07.464Z,7.53
2022-08-29T03:45:37.169Z,5.03
2022-08-29T03:48:07.441Z,5.85
2022-08-29T03:50:37.224Z,6.32
2022-08-29T03:53:07.006Z,2.85
2022-08-29T03:55:36.755Z,3.63
2022-08-29T03:58:09.359Z,3.65
2022-08-29T04:00:39.213Z,4.88
2022-08-29T04:03:08.960Z,2.25
2022-08-29T04:05:38.743Z,3.83
2022-08-29T04:08:08.685Z,3.40
2022-08-29T04:10:41.568Z,3.75
2022-08-29T04:13:13.929Z,3.88
2022-08-29T04:15:45.957Z,4.07
2022-08-29T04:18:15.916Z,4.78
2022-08-29T04:20:51.934Z,5.18
2022-08-29T04:23:21.688Z,3.67
2022-08-29T04:25:59.135Z,5.28
2022-08-29T04:28:43.774Z,5.07
2022-08-29T04:31:20.113Z,4.50
2022-08-29T04:33:51.085Z,4.20
2022-08-29T04:36:21.022Z,5.35
2022-08-29T04:38:51.119Z,3.47
2022-08-29T04:41:21.044Z,5.28
2022-08-29T04:43:53.568Z,3.08
2022-08-29T04:46:23.795Z,4.57
2022-08-29T04:48:54.175Z,4.07
2022-08-29T04:51:24.696Z,5.63
2022-08-29T04:53:54.893Z,2.47
2022-08-29T04:56:25.165Z,4.68
2022-08-29T04:58:57.517Z,4.78
2022-08-29T05:01:28.070Z,3.03
2022-08-29T05:03:59.252Z,4.93
2022-08-29T05:06:29.911Z,4.07
2022-08-29T05:09:00.191Z,2.63
2022-08-29T05:11:31.811Z,2.72
2022-08-29T05:14:04.796Z,2.45
2022-08-29T05:16:37.290Z,2.83
2022-08-29T05:19:11.640Z,3.33
2022-08-29T05:21:43.299Z,3.08
2022-08-29T05:24:15.536Z,2.60
2022-08-29T05:26:47.983Z,4.03
2022-08-29T05:29:21.046Z,4.07
2022-08-29T05:31:51.047Z,5.50
2022-08-29T05:34:34.048Z,3.75
2022-08-29T05:37:06.135Z,5.03
2022-08-29T05:39:36.814Z,6.13
2022-08-29T05:42:08.474Z,3.47
2022-08-29T05:44:41.155Z,4.32
2022-08-29T05:47:12.795Z,4.00
2022-08-29T05:49:44.975Z,7.32
2022-08-29T05:52:17.289Z,6.75
2022-08-29T05:54:47.720Z,7.25
2022-08-29T05:57:20.433Z,5.68
2022-08-29T05:59:55.060Z,8.10
2022-08-29T06:02:26.336Z,7.90
2022-08-29T06:04:57.257Z,7.95
2022-08-29T06:07:27.035Z,9.05
2022-08-29T06:10:03.567Z,9.13
2022-08-29T06:12:33.854Z,7.00
2022-08-29T06:15:07.072Z,9.75
2022-08-29T06:17:37.822Z,8.32
2022-08-29T06:20:11.224Z,11.57
2022-08-29T06:22:41.693Z,8.05
2022-08-29T06:25:37.459Z,10.35
2022-08-29T06:28:02.746Z,7.43
2022-08-29T06:30:36.869Z,7.13
2022-08-29T06:33:06.739Z,7.68
2022-08-29T06:35:36.464Z,7.40
2022-08-29T06:38:10.759Z,8.10
2022-08-29T06:40:43.173Z,6.40
2022-08-29T06:43:12.897Z,7.93
2022-08-29T06:45:48.438Z,11.45
2022-08-29T06:48:18.306Z,7.60
2022-08-29T06:50:48.029Z,9.02
2022-08-29T06:53:27.311Z,8.68
2022-08-29T06:56:06.754Z,6.95
2022-08-29T06:58:41.668Z,12.95
2022-08-29T07:01:16.322Z,8.80
2022-08-29T07:03:46.128Z,8.45
2022-08-29T07:06:16.335Z,11.02
2022-08-29T07:08:55.261Z,9.70
2022-08-29T07:11:25.934Z,9.93
2022-08-29T07:13:56.041Z,5.90
2022-08-29T07:16:29.375Z,7.32
2022-08-29T07:18:59.143Z,11.52
2022-08-29T07:21:29.737Z,5.53
2022-08-29T07:24:02.071Z,7.70
2022-08-29T07:26:36.344Z,10.05
2022-08-29T07:29:09.862Z,4.85
2022-08-29T07:31:42.369Z,4.50
2022-08-29T07:34:12.717Z,7.53
2022-08-29T07:36:42.830Z,9.82
2022-08-29T07:39:19.890Z,6.90
2022-08-29T07:41:49.923Z,7.65
2022-08-29T07:44:21.137Z,7.63
2022-08-29T07:46:58.162Z,5.72
2022-08-29T07:49:40.626Z,6.18
2022-08-29T07:52:11.482Z,6.55
2022-08-29T07:54:41.254Z,7.57
2022-08-29T07:57:11.004Z,12.07
2022-08-29T07:59:40.902Z,10.00
2022-08-29T08:02:13.298Z,11.20
2022-08-29T08:04:43.115Z,10.10
2022-08-29T08:07:14.099Z,8.10
2022-08-29T08:09:44.658Z,10.57
2022-08-29T08:12:14.576Z,11.48
2022-08-29T08:14:44.289Z,9.55
2022-08-29T08:17:16.600Z,8.25
2022-08-29T08:19:46.323Z,7.03
2022-08-29T08:22:16.006Z,8.63
2022-08-29T08:24:45.752Z,12.80
2022-08-29T08:27:15.446Z,10.38
2022-08-29T08:29:45.882Z,10.50
2022-08-29T08:32:18.619Z,9.93
2022-08-29T08:34:48.364Z,10.85
2022-08-29T08:37:24.308Z,11.77
2022-08-29T08:39:59.406Z,9.80
2022-08-29T08:42:42.380Z,9.05
2022-08-29T08:45:13.242Z,7.90
2022-08-29T08:47:50.355Z,6.82
2022-08-29T08:50:27.977Z,9.27
2022-08-29T08:53:04.456Z,9.77
2022-08-29T08:55:42.799Z,13.40
2022-08-29T08:58:28.730Z,10.65
2022-08-29T09:01:02.646Z,14.32
2022-08-29T09:03:58.292Z,9.75
2022-08-29T09:06:43.270Z,13.60
2022-08-29T09:09:24.586Z,9.75
2022-08-29T09:12:04.972Z,8.25
2022-08-29T09:14:49.143Z,6.90
2022-08-29T09:17:24.481Z,12.43
2022-08-29T09:19:59.142Z,13.02
2022-08-29T09:22:32.865Z,9.10
2022-08-29T09:25:05.563Z,8.52
2022-08-29T09:27:39.057Z,9.60
2022-08-29T09:30:13.188Z,9.75
2022-08-29T09:32:56.529Z,8.82
2022-08-29T09:35:32.630Z,9.15
2022-08-29T09:38:07.688Z,8.68
2022-08-29T09:40:51.195Z,10.57
2022-08-29T09:43:28.036Z,9.10
2022-08-29T09:46:18.032Z,9.60
2022-08-29T09:48:49.889Z,8.98
2022-08-29T09:51:28.599Z,8.77
2022-08-29T09:54:15.079Z,8.90
2022-08-29T09:56:52.347Z,8.40
2022-08-29T09:59:28.005Z,9.35
2022-08-29T10:02:19.742Z,7.75
2022-08-29T10:04:52.777Z,8.93
2022-08-29T10:07:28.203Z,10.35
2022-08-29T10:10:04.559Z,9.35
2022-08-29T10:12:44.253Z,10.35
2022-08-29T10:15:39.977Z,7.85
2022-08-29T10:18:25.229Z,9.45
2022-08-29T10:21:07.827Z,8.93
2022-08-29T10:23:51.853Z,8.00
2022-08-29T10:26:32.859Z,9.05
2022-08-29T10:29:14.865Z,6.85
2022-08-29T10:31:53.202Z,10.43
2022-08-29T10:34:39.853Z,9.45
2022-08-29T10:37:21.287Z,7.45
2022-08-29T10:40:04.233Z,11.38
2022-08-29T10:42:37.932Z,9.57
2022-08-29T10:45:18.573Z,8.32
2022-08-29T10:47:55.097Z,11.40
2022-08-29T10:50:45.673Z,10.57
2022-08-29T10:53:21.735Z,9.32
2022-08-29T10:56:05.841Z,10.57
2022-08-29T10:58:58.879Z,12.48
2022-08-29T11:01:36.237Z,9.77
2022-08-29T11:04:17.964Z,9.27
2022-08-29T11:06:56.969Z,9.18
2022-08-29T11:09:32.757Z,10.75
2022-08-29T11:12:10.878Z,6.80
2022-08-29T11:14:52.555Z,9.15
2022-08-29T11:17:26.070Z,9.80
2022-08-29T11:20:05.605Z,7.90
2022-08-29T11:22:40.800Z,9.18
2022-08-29T11:25:14.737Z,7.53
2022-08-29T11:27:57.586Z,5.72
2022-08-29T11:30:41.769Z,7.15
2022-08-29T11:33:27.373Z,9.57
2022-08-29T11:36:17.580Z,7.15
2022-08-29T11:39:21.060Z,7.70
2022-08-29T11:41:57.744Z,9.35
2022-08-29T11:44:36.675Z,7.80
2022-08-29T11:47:40.862Z,6.88
2022-08-29T11:50:30.450Z,5.60
2022-08-29T11:53:11.574Z,8.75
2022-08-29T11:55:43.358Z,7.03
2022-08-29T11:58:48.817Z,7.72
2022-08-29T12:01:48.401Z,5.05
2022-08-29T12:04:54.132Z,6.63
2022-08-29T12:07:36.091Z,12.02
2022-08-29T12:10:09.744Z,10.32
2022-08-29T12:12:44.014Z,7.78
2022-08-29T12:16:04.118Z,7.32
2022-08-29T12:18:46.264Z,8.45
2022-08-29T12:21:47.282Z,6.80
2022-08-29T12:24:39.729Z,6.38
2022-08-29T12:27:25.025Z,7.53
2022-08-29T12:29:56.332Z,9.40
2022-08-29T12:32:44.074Z,7.32
2022-08-29T12:35:33.490Z,13.38
2022-08-29T12:38:20.244Z,8.00
2022-08-29T12:41:04.426Z,8.82
2022-08-29T12:43:41.487Z,8.93
2022-08-29T12:46:15.318Z,8.13
2022-08-29T12:48:57.627Z,8.85
2022-08-29T12:51:35.862Z,8.70
2022-08-29T12:54:10.208Z,6.72
2022-08-29T12:56:43.531Z,7.22
2022-08-29T12:59:20.829Z,9.85
2022-08-29T13:01:54.938Z,6.97
2022-08-29T13:04:32.220Z,7.18
2022-08-29T13:07:03.755Z,8.35
2022-08-29T13:09:40.544Z,6.35
2022-08-29T13:12:17.801Z,5.00
2022-08-29T13:14:56.590Z,6.53
2022-08-29T13:17:30.366Z,7.13
2022-08-29T13:20:34.530Z,6.78
2022-08-29T13:23:11.174Z,4.82
2022-08-29T13:25:50.823Z,9.77
2022-08-29T13:28:26.434Z,4.05
2022-08-29T13:31:11.803Z,8.25
2022-08-29T13:33:44.028Z,6.38
2022-08-29T13:36:31.868Z,7.78
2022-08-29T13:39:29.381Z,5.53
2022-08-29T13:42:21.628Z,6.45
2022-08-29T13:45:14.810Z,8.85
2022-08-29T13:48:19.022Z,4.93
2022-08-29T13:50:49.647Z,7.68
2022-08-29T13:53:19.451Z,6.18
2022-08-29T13:55:49.474Z,7.68
2022-08-29T13:58:24.323Z,6.22
2022-08-29T14:00:54.010Z,5.15
2022-08-29T14:03:24.045Z,5.80
2022-08-29T14:05:56.604Z,4.47
2022-08-29T14:08:27.219Z,5.25
2022-08-29T14:10:56.952Z,7.63
2022-08-29T14:13:29.287Z,5.45
2022-08-29T14:15:59.076Z,4.95
2022-08-29T14:18:29.116Z,5.70
2022-08-29T14:21:02.856Z,6.75
2022-08-29T14:23:32.665Z,7.53
2022-08-29T14:26:02.672Z,6.25
2022-08-29T14:28:39.933Z,5.90
2022-08-29T14:31:10.975Z,6.30
2022-08-29T14:33:40.801Z,6.35
2022-08-29T14:36:11.687Z,3.65
2022-08-29T14:38:41.469Z,6.45
2022-08-29T14:41:11.282Z,6.18
2022-08-29T14:43:43.584Z,3.92
2022-08-29T14:46:13.429Z,6.03
2022-08-29T14:48:43.368Z,5.22
2022-08-29T14:51:13.204Z,4.65
2022-08-29T14:53:53.152Z,4.63
2022-08-29T14:56:47.064Z,5.00
2022-08-29T14:59:20.413Z,7.65
2022-08-29T15:01:54.188Z,5.43
2022-08-29T15:04:36.736Z,6.65
2022-08-29T15:07:07.799Z,6.22
2022-08-29T15:09:38.147Z,6.45
2022-08-29T15:12:08.512Z,7.28
2022-08-29T15:14:41.606Z,5.22
2022-08-29T15:17:11.864Z,7.03
2022-08-29T15:22:31.824Z,6.00
2022-08-29T15:25:01.668Z,6.13
2022-08-29T15:27:31.453Z,4.20
2022-08-29T15:30:04.448Z,5.00
2022-08-29T15:32:34.692Z,6.22
2022-08-29T15:35:04.433Z,6.28
2022-08-29T15:37:34.243Z,6.55
2022-08-29T15:40:04.385Z,5.32
2022-08-29T15:42:34.351Z,4.90
2022-08-29T15:45:10.164Z,5.82
2022-08-29T15:47:46.244Z,3.85
2022-08-29T15:50:16.571Z,2.60
2022-08-29T15:52:46.613Z,3.45
2022-08-29T15:55:16.328Z,4.22
2022-08-29T15:57:52.431Z,2.85
2022-08-29T16:00:30.341Z,3.72
2022-08-29T16:03:02.799Z,3.35
2022-08-29T16:05:33.238Z,2.65
2022-08-29T16:08:03.567Z,2.97
2022-08-29T16:10:34.807Z,4.13
2022-08-29T16:13:06.233Z,3.58
2022-08-29T16:15:38.907Z,3.00
2022-08-29T16:18:08.869Z,3.40
2022-08-29T16:20:41.365Z,3.42
2022-08-29T16:23:11.636Z,4.13
2022-08-29T16:25:44.257Z,3.83
2022-08-29T16:28:14.303Z,2.85
2022-08-29T16:30:49.772Z,3.42
2022-08-29T16:33:19.734Z,2.95
2022-08-29T16:35:49.506Z,2.85
2022-08-29T16:38:19.448Z,4.20
2022-08-29T16:40:50.416Z,3.55
2022-08-29T16:43:20.479Z,3.40
2022-08-29T16:45:53.513Z,3.35
2022-08-29T16:48:24.305Z,2.55
2022-08-29T16:50:54.090Z,2.33
2022-08-29T16:53:23.884Z,5.63
2022-08-29T16:55:53.630Z,5.38
2022-08-29T16:58:35.811Z,5.43
2022-08-29T17:01:08.337Z,3.78
2022-08-29T17:03:38.186Z,4.85
2022-08-29T17:06:08.547Z,4.07
2022-08-29T17:08:35.473Z,5.10
2022-08-29T17:11:02.405Z,4.88
2022-08-29T17:13:29.437Z,3.13
2022-08-29T17:16:01.341Z,2.25
2022-08-29T17:18:33.998Z,3.20
2022-08-29T17:21:04.046Z,3.00
2022-08-29T17:23:35.870Z,4.93
2022-08-29T17:26:07.824Z,4.30
2022-08-29T17:28:38.881Z,4.13
2022-08-29T17:31:09.212Z,3.60
2022-08-29T17:33:41.690Z,5.40
2022-08-29T17:36:13.151Z,3.67
2022-08-29T17:38:45.175Z,4.47
2022-08-29T17:41:17.319Z,3.70
2022-08-29T17:43:48.313Z,2.75
2022-08-29T17:46:18.906Z,3.20
2022-08-29T17:48:51.487Z,6.97
2022-08-29T17:51:21.171Z,3.97
2022-08-29T17:53:52.861Z,2.58
2022-08-29T17:56:29.546Z,2.75
2022-08-29T17:59:01.056Z,4.03
2022-08-29T18:01:32.415Z,3.47
2022-08-29T18:04:05.259Z,3.15
2022-08-29T18:06:35.035Z,4.20
2022-08-29T18:09:04.923Z,3.30
2022-08-29T18:11:34.860Z,2.28
2022-08-29T18:14:04.628Z,4.05
2022-08-29T18:16:34.432Z,6.25
2022-08-29T18:19:07.365Z,4.00
2022-08-29T18:21:38.179Z,2.38
2022-08-29T18:24:08.468Z,6.47
2022-08-29T18:26:38.395Z,3.60
2022-08-29T18:29:08.252Z,2.72
2022-08-29T18:31:38.339Z,4.03
2022-08-29T18:34:11.229Z,4.03
2022-08-29T18:36:43.915Z,2.15
2022-08-29T18:39:14.723Z,2.10
2022-08-29T18:41:45.246Z,1.90
2022-08-29T18:44:15.225Z,3.97
2022-08-29T18:46:47.886Z,3.47
2022-08-29T18:49:41.453Z,2.85
2022-08-29T18:52:11.835Z,3.88
2022-08-29T18:54:41.555Z,3.88
2022-08-29T18:57:11.811Z,2.10
2022-08-29T18:59:42.141Z,3.13
2022-08-29T19:02:13.090Z,3.33
2022-08-29T19:04:45.620Z,3.30
2022-08-29T19:07:15.741Z,5.32
2022-08-29T19:09:54.140Z,3.28
2022-08-29T19:12:23.903Z,3.30
2022-08-29T19:14:54.249Z,4.95
2022-08-29T19:17:24.026Z,4.78
2022-08-29T19:20:10.442Z,3.10
2022-08-29T19:22:42.254Z,2.90
2022-08-29T19:25:12.664Z,4.47
2022-08-29T19:27:43.912Z,3.97
2022-08-29T19:30:15.642Z,2.95
2022-08-29T19:32:46.025Z,4.47
2022-08-29T19:35:18.555Z,2.95
2022-08-29T19:37:48.517Z,2.92
2022-08-29T19:40:20.761Z,3.05
2022-08-29T19:42:51.344Z,3.22
2022-08-29T19:45:22.484Z,3.08
2022-08-29T19:47:52.507Z,3.95
2022-08-29T19:50:26.405Z,2.92
2022-08-29T19:52:56.606Z,2.05
2022-08-29T19:55:27.255Z,2.20
2022-08-29T19:57:57.210Z,4.57
2022-08-29T20:00:27.872Z,2.78
2022-08-29T20:03:00.064Z,3.30
2022-08-29T20:05:32.397Z,4.25
2022-08-29T20:08:02.123Z,2.50
2022-08-29T20:10:35.037Z,2.53
2022-08-29T20:13:07.039Z,1.60
2022-08-29T20:15:36.919Z,4.00
2022-08-29T20:18:07.055Z,3.08
2022-08-29T20:20:42.297Z,3.10
2022-08-29T20:23:13.217Z,2.03
2022-08-29T20:25:43.509Z,4.10
2022-08-29T20:28:15.823Z,4.55
2022-08-29T20:30:46.343Z,2.28
2022-08-29T20:33:19.958Z,2.40
2022-08-29T20:36:13.595Z,3.65
2022-08-29T20:38:43.312Z,4.60
2022-08-29T20:41:13.041Z,2.58
2022-08-29T20:43:42.840Z,2.35
2022-08-29T20:46:14.425Z,3.33
2022-08-29T20:48:44.247Z,2.75
2022-08-29T20:51:16.672Z,2.70
2022-08-29T20:53:46.399Z,3.45
2022-08-29T20:56:16.151Z,2.67
2022-08-29T20:58:46.738Z,2.90
2022-08-29T21:01:16.622Z,2.22
2022-08-29T21:03:58.822Z,3.78
2022-08-29T21:06:31.433Z,2.83
2022-08-29T21:09:01.564Z,3.30
2022-08-29T21:11:31.338Z,3.63
2022-08-29T21:14:01.141Z,4.85
2022-08-29T21:16:30.942Z,3.17
2022-08-29T21:19:01.023Z,3.00
2022-08-29T21:21:33.336Z,3.17
2022-08-29T21:24:03.065Z,1.92
2022-08-29T21:26:32.947Z,3.08
2022-08-29T21:29:03.000Z,2.65
2022-08-29T21:31:32.813Z,3.85
2022-08-29T21:34:06.892Z,1.60
2022-08-29T21:36:40.621Z,3.25
2022-08-29T21:39:12.236Z,2.60
2022-08-29T21:41:47.147Z,2.78
2022-08-29T21:44:18.039Z,2.50
2022-08-29T21:46:49.317Z,2.10
2022-08-29T21:49:21.933Z,3.72
2022-08-29T21:51:54.277Z,3.50
2022-08-29T21:54:24.006Z,2.15
2022-08-29T21:56:53.723Z,2.45
2022-08-29T21:59:23.658Z,2.85
2022-08-29T22:01:54.559Z,3.17
2022-08-29T22:04:28.995Z,2.40
2022-08-29T22:07:01.987Z,2.20
2022-08-29T22:09:32.226Z,2.63
2022-08-29T22:12:03.890Z,2.60
2022-08-29T22:14:46.101Z,2.70
2022-08-29T22:17:16.925Z,2.92
2022-08-29T22:19:47.560Z,3.85
2022-08-29T22:22:19.852Z,2.33
2022-08-29T22:24:49.629Z,3.47
2022-08-29T22:27:19.568Z,3.10
2022-08-29T22:29:49.301Z,3.35
2022-08-29T22:32:19.029Z,1.98
2022-08-29T22:34:48.913Z,1.75
2022-08-29T22:37:21.737Z,2.85
2022-08-29T22:39:51.468Z,1.88
2022-08-29T22:42:21.208Z,3.08
2022-08-29T22:45:06.407Z,1.70
2022-08-29T22:47:36.146Z,2.65
2022-08-29T22:50:06.310Z,1.67
2022-08-29T22:52:38.961Z,1.85
2022-08-29T22:55:09.276Z,1.95
2022-08-29T22:57:39.046Z,1.98
2022-08-29T23:00:11.578Z,2.13
2022-08-29T23:02:41.372Z,1.92
2022-08-29T23:05:11.625Z,1.30
2022-08-29T23:07:44.347Z,2.28
2022-08-29T23:10:14.783Z,1.98
2022-08-29T23:12:44.508Z,2.17
2022-08-29T23:15:17.469Z,2.08
2022-08-29T23:17:47.749Z,4.55
2022-08-29T23:20:19.314Z,1.50
2022-08-29T23:22:51.809Z,2.22
2022-08-29T23:25:21.861Z,1.13
2022-08-29T23:27:51.561Z,1.58
2022-08-29T23:30:21.299Z,1.88
2022-08-29T23:32:51.016Z,1.52
2022-08-29T23:35:20.719Z,1.67
2022-08-29T23:37:53.041Z,1.98
2022-08-29T23:40:22.901Z,2.28
2022-08-29T23:42:52.672Z,1.20
2022-08-29T23:45:22.487Z,3.00
2022-08-29T23:47:52.659Z,1.67
2022-08-29T23:50:22.580Z,1.52
2022-08-29T23:52:54.930Z,2.40
2022-08-29T23:55:24.781Z,1.75
2022-08-29T23:57:55.147Z,2.00
